Eikyumaru No.8 — JL6210 — position and weather

sailwx.info

Track history (hours):
 
Tides and Currents Weather Stations Pressure Air Temp Water Temp Dewpoint Dewpoint Depression Visibility Wind Speed Wind Dir Waves Ship Positions

Eikyumaru No.8

Last reported at 2017-Nov-20 00:30 UTC. Time now 2017-Nov-24 03:38 UTC.
Position N 34°39' E 135°17'.

Length 54 m.

Type: Cargo ship. MMSI: 431500105.

Date/timePositionNaut miles runAvg speedWind from/ knotsBaromVisibWave heightAir tempDewpointWater temp
2017-Nov-20 00:30N 34°39' E 135°17'0 0.8
2017-Nov-19 23:55N 34°39' E 135°17'0 0.0
2017-Nov-19 23:25N 34°39' E 135°17'0 0.6
2017-Nov-19 22:59N 34°40' E 135°17'0 0.0
2017-Nov-19 22:17N 34°40' E 135°17'0 0.2
2017-Nov-19 21:59N 34°40' E 135°17'0 0.0
2017-Nov-19 21:29N 34°40' E 135°17'0 0.1
2017-Nov-19 20:59N 34°40' E 135°17'0 0.1
2017-Nov-19 20:29N 34°40' E 135°17'0 0.1
2017-Nov-19 19:59N 34°40' E 135°17'0 0.1
2017-Nov-19 19:29N 34°40' E 135°17'0 0.0
2017-Nov-19 18:59N 34°40' E 135°17'0 0.0
2017-Nov-19 18:29N 34°40' E 135°17'0 0.0
2017-Nov-19 17:59N 34°40' E 135°17'0 0.0
2017-Nov-19 17:23N 34°40' E 135°17'0 0.0
2017-Nov-19 16:53N 34°40' E 135°17'0 0.0
2017-Nov-19 16:29N 34°40' E 135°17'0 0.0
2017-Nov-19 15:59N 34°40' E 135°17'1 2.0
2017-Nov-19 15:30N 34°39' E 135°17'510.1
2017-Nov-19 15:00N 34°36' E 135°11'510.6
2017-Nov-19 14:29N 34°35' E 135°05'  
2017-Nov-16 02:09N 34°36' E 135°03'1 8.8
2017-Nov-16 02:00N 34°36' E 135°05'5 9.6
2017-Nov-16 01:31N 34°37' E 135°10'510.4
2017-Nov-16 01:00N 34°38' E 135°17'1 0.7
2017-Nov-15 23:36N 34°39' E 135°17'0 0.1
2017-Nov-15 23:30N 34°39' E 135°17'0 0.5
2017-Nov-15 22:59N 34°40' E 135°17'0 0.0
2017-Nov-15 22:29N 34°40' E 135°17'0 0.0
2017-Nov-15 21:59N 34°40' E 135°17'0 0.0
2017-Nov-15 21:23N 34°40' E 135°17'0 0.0
2017-Nov-15 20:59N 34°40' E 135°17'0 0.0
2017-Nov-15 20:29N 34°40' E 135°17'0 0.0
2017-Nov-15 19:53N 34°40' E 135°17'0 0.0
2017-Nov-15 19:29N 34°40' E 135°17'0 0.0
2017-Nov-15 18:59N 34°40' E 135°17'0 0.0
2017-Nov-15 18:29N 34°40' E 135°17'0 0.0
2017-Nov-15 17:59N 34°40' E 135°17'0 0.0
2017-Nov-15 17:29N 34°40' E 135°17'0 0.0
2017-Nov-15 16:59N 34°40' E 135°17'0 0.0
2017-Nov-15 16:29N 34°40' E 135°17'0 0.0
2017-Nov-15 15:59N 34°40' E 135°17'0 0.0
2017-Nov-15 15:29N 34°40' E 135°17'0 0.0
2017-Nov-15 14:59N 34°40' E 135°17'0 0.0
2017-Nov-15 14:29N 34°40' E 135°17'0 0.0
2017-Nov-15 13:59N 34°40' E 135°17'0 0.0
2017-Nov-15 13:29N 34°40' E 135°17'0 0.0
2017-Nov-15 12:59N 34°40' E 135°17'0 0.0
2017-Nov-15 12:29N 34°40' E 135°17'0 0.0
2017-Nov-15 11:59N 34°40' E 135°17'0 0.0
2017-Nov-15 11:29N 34°40' E 135°17'0 0.0
2017-Nov-15 10:41N 34°40' E 135°17'0 0.0
2017-Nov-15 10:29N 34°40' E 135°17'0 0.0
2017-Nov-15 09:59N 34°40' E 135°17'2 4.5
2017-Nov-15 09:30N 34°38' E 135°15'5 9.7
2017-Nov-15 09:00N 34°36' E 135°10'5 9.2
2017-Nov-15 08:28N 34°35' E 135°04'  
2017-Nov-13 01:59N 34°35' E 135°05'  
2017-Nov-10 01:59N 34°37' E 135°01'511.4
2017-Nov-10 01:30N 34°36' E 135°08'611.4
2017-Nov-10 00:59N 34°38' E 135°15'  
Track history (hours):
 
Tides and Currents Weather Stations Pressure Air Temp Water Temp Dewpoint Dewpoint Depression Visibility Wind Speed Wind Dir Waves Ship Positions

Eikyumaru No.8

Last reported at 2017-Nov-20 00:30 UTC. Time now 2017-Nov-24 03:38 UTC.
Position N 34°39' E 135°17'.

Length 54 m.

Type: Cargo ship. MMSI: 431500105.

Date/timePositionNaut miles runAvg speedWind from/ knotsBaromVisibWave heightAir tempDewpointWater temp
2017-Nov-20 00:30N 34°39' E 135°17'0 0.8
2017-Nov-19 23:55N 34°39' E 135°17'0 0.0
2017-Nov-19 23:25N 34°39' E 135°17'0 0.6
2017-Nov-19 22:59N 34°40' E 135°17'0 0.0
2017-Nov-19 22:17N 34°40' E 135°17'0 0.2
2017-Nov-19 21:59N 34°40' E 135°17'0 0.0
2017-Nov-19 21:29N 34°40' E 135°17'0 0.1
2017-Nov-19 20:59N 34°40' E 135°17'0 0.1
2017-Nov-19 20:29N 34°40' E 135°17'0 0.1
2017-Nov-19 19:59N 34°40' E 135°17'0 0.1
2017-Nov-19 19:29N 34°40' E 135°17'0 0.0
2017-Nov-19 18:59N 34°40' E 135°17'0 0.0
2017-Nov-19 18:29N 34°40' E 135°17'0 0.0
2017-Nov-19 17:59N 34°40' E 135°17'0 0.0
2017-Nov-19 17:23N 34°40' E 135°17'0 0.0
2017-Nov-19 16:53N 34°40' E 135°17'0 0.0
2017-Nov-19 16:29N 34°40' E 135°17'0 0.0
2017-Nov-19 15:59N 34°40' E 135°17'1 2.0
2017-Nov-19 15:30N 34°39' E 135°17'510.1
2017-Nov-19 15:00N 34°36' E 135°11'510.6
2017-Nov-19 14:29N 34°35' E 135°05'  
2017-Nov-16 02:09N 34°36' E 135°03'1 8.8
2017-Nov-16 02:00N 34°36' E 135°05'5 9.6
2017-Nov-16 01:31N 34°37' E 135°10'510.4
2017-Nov-16 01:00N 34°38' E 135°17'1 0.7
2017-Nov-15 23:36N 34°39' E 135°17'0 0.1
2017-Nov-15 23:30N 34°39' E 135°17'0 0.5
2017-Nov-15 22:59N 34°40' E 135°17'0 0.0
2017-Nov-15 22:29N 34°40' E 135°17'0 0.0
2017-Nov-15 21:59N 34°40' E 135°17'0 0.0
2017-Nov-15 21:23N 34°40' E 135°17'0 0.0
2017-Nov-15 20:59N 34°40' E 135°17'0 0.0
2017-Nov-15 20:29N 34°40' E 135°17'0 0.0
2017-Nov-15 19:53N 34°40' E 135°17'0 0.0
2017-Nov-15 19:29N 34°40' E 135°17'0 0.0
2017-Nov-15 18:59N 34°40' E 135°17'0 0.0
2017-Nov-15 18:29N 34°40' E 135°17'0 0.0
2017-Nov-15 17:59N 34°40' E 135°17'0 0.0
2017-Nov-15 17:29N 34°40' E 135°17'0 0.0
2017-Nov-15 16:59N 34°40' E 135°17'0 0.0
2017-Nov-15 16:29N 34°40' E 135°17'0 0.0
2017-Nov-15 15:59N 34°40' E 135°17'0 0.0
2017-Nov-15 15:29N 34°40' E 135°17'0 0.0
2017-Nov-15 14:59N 34°40' E 135°17'0 0.0
2017-Nov-15 14:29N 34°40' E 135°17'0 0.0
2017-Nov-15 13:59N 34°40' E 135°17'0 0.0
2017-Nov-15 13:29N 34°40' E 135°17'0 0.0
2017-Nov-15 12:59N 34°40' E 135°17'0 0.0
2017-Nov-15 12:29N 34°40' E 135°17'0 0.0
2017-Nov-15 11:59N 34°40' E 135°17'0 0.0
2017-Nov-15 11:29N 34°40' E 135°17'0 0.0
2017-Nov-15 10:41N 34°40' E 135°17'0 0.0
2017-Nov-15 10:29N 34°40' E 135°17'0 0.0
2017-Nov-15 09:59N 34°40' E 135°17'2 4.5
2017-Nov-15 09:30N 34°38' E 135°15'5 9.7
2017-Nov-15 09:00N 34°36' E 135°10'5 9.2
2017-Nov-15 08:28N 34°35' E 135°04'  
2017-Nov-13 01:59N 34°35' E 135°05'  
2017-Nov-10 01:59N 34°37' E 135°01'511.4
2017-Nov-10 01:30N 34°36' E 135°08'611.4
2017-Nov-10 00:59N 34°38' E 135°15'  

Dump ship's entire track history